Time;durP1;ratioP1;P1;durP2;ratioP2;P2;SDS_P1;SDS_P2;PMS_P1;PMS_P2;Temp;Humidity;BMP_temperature;BMP_pressure;BME280_temperature;BME280_humidity;BME280_pressure;Samples;Min_cycle;Max_cycle;Signal;HPM_P1;HPM_P2
2023/04/22 00:10:06;;;;;;;;;;;;;;;7.03;67.40;98283.78;103851;1324;22615;-87
2023/04/22 00:13:32;;;;;;;;;;;;;;;7.04;66.64;98286.73;103781;1308;22567;-85
2023/04/22 00:16:26;;;;;;;;;;;;;;;;;;;;;
2023/04/22 00:31:18;;;;;;;;;;;;;;;6.94;67.47;98283.23;105602;1303;123154;-87
2023/04/22 00:34:48;;;;;;;;;;;;;;;6.86;67.61;98280.15;105226;1291;22623;-86
2023/04/22 00:48:43;;;;;;;;;;;;;;;6.71;67.64;98274.31;103608;1324;123446;-86
2023/04/22 00:52:10;;;;;;;;;;;;;;;6.67;67.97;98279.77;103164;1331;22543;-85
2023/04/22 00:59:38;;;;;;;;;;;;;;;6.56;68.96;98278.75;103601;1305;547789;-86
2023/04/22 01:03:06;;;;;;;;;;;;;;;6.48;68.90;98275.81;105060;1309;24331;-86
2023/04/22 01:10:00;;;;;;;;;;;;;;;6.39;68.79;98273.17;104750;1293;22540;-85
2023/04/22 01:24:23;;;;;;;;;;;;;;;6.02;70.67;98276.83;104959;1307;123539;-87
2023/04/22 01:27:52;;;;;;;;;;;;;;;5.93;70.91;98275.62;105104;1310;22681;-85
2023/04/22 01:34:34;;;;;;;;;;;;;;;;;;;;;
2023/04/22 01:41:42;;;;;;;;;;;;;;;5.70;71.53;98288.83;103788;1316;123961;-84
2023/04/22 01:49:11;;;;;;;;;;;;;;;5.63;71.63;98282.89;103481;1308;545043;-86
2023/04/22 01:52:40;;;;;;;;;;;;;;;5.58;71.89;98286.11;105913;1301;22631;-86
2023/04/22 01:59:40;;;;;;;;;;;;;;;5.46;72.35;98285.32;106690;1290;124212;-86
2023/04/22 02:03:08;;;;;;;;;;;;;;;5.40;72.76;98286.89;102070;1291;5500036;-87
2023/04/22 02:06:34;;;;;;;;;;;;;;;5.32;73.00;98284.65;105196;1305;124248;-87
2023/04/22 02:24:27;;;;;;;;;;;;;;;5.29;71.93;98275.02;106656;1275;123448;-85
2023/04/22 02:27:54;;;;;;;;;;;;;;;5.31;71.89;98277.63;106451;1294;25485;-84
2023/04/22 02:31:22;;;;;;;;;;;;;;;5.33;71.68;98273.66;105612;1280;123409;-85
2023/04/22 02:34:50;;;;;;;;;;;;;;;5.35;71.64;98273.87;100830;1305;5494017;-86
2023/04/22 02:41:42;;;;;;;;;;;;;;;5.35;71.69;98276.41;104307;1295;123657;-86
2023/04/22 02:45:08;;;;;;;;;;;;;;;5.34;71.73;98273.99;104384;1314;25372;-84
2023/04/22 02:52:21;;;;;;;;;;;;;;;;;;;;;
2023/04/22 02:56:04;;;;;;;;;;;;;;;5.38;71.12;98267.00;106889;1299;22544;-84
2023/04/22 02:59:32;;;;;;;;;;;;;;;5.38;70.97;98271.77;105297;1306;24309;-84
2023/04/22 03:02:37;;;;;;;;;;;;;;;5.40;70.99;98273.05;104870;1310;23361;-86
2023/04/22 03:06:34;;;;;;;;;;;;;;;5.39;70.85;98272.36;100049;1317;5544729;-84
2023/04/22 03:10:01;;;;;;;;;;;;;;;5.38;70.83;98273.10;103594;1324;24385;-85
2023/04/22 03:13:13;;;;;;;;;;;;;;;5.37;70.76;98274.42;102463;1313;123738;-85
2023/04/22 03:16:39;;;;;;;;;;;;;;;5.38;70.76;98273.35;102484;1326;25346;-84
2023/04/22 03:19:33;;;;;;;;;;;;;;;;;;;;;
2023/04/22 03:22:53;;;;;;;;;;;;;;;;;;;;;
2023/04/22 03:30:48;;;;;;;;;;;;;;;5.09;72.00;98282.96;104566;1313;124229;-86
2023/04/22 03:33:51;;;;;;;;;;;;;;;5.06;72.29;98283.80;104427;1319;22597;-85
2023/04/22 03:48:42;;;;;;;;;;;;;;;4.83;73.17;98289.23;105528;1304;124194;-86
2023/04/22 03:52:08;;;;;;;;;;;;;;;4.76;73.70;98290.88;105345;1307;23296;-86
2023/04/22 03:59:01;;;;;;;;;;;;;;;4.68;74.25;98296.08;100988;1317;5490959;-84
2023/04/22 04:13:23;;;;;;;;;;;;;;;4.69;73.68;98304.02;103709;1323;123319;-85
2023/04/22 04:38:38;;;;;;;;;;;;;;;5.21;72.47;98308.90;104536;1302;546786;-85
2023/04/22 04:42:06;;;;;;;;;;;;;;;5.29;72.04;98306.25;106495;1295;123616;-84
2023/04/22 04:45:19;;;;;;;;;;;;;;;;;;;;;
2023/04/22 04:52:31;;;;;;;;;;;;;;;5.56;72.16;98311.04;100893;1314;5435351;-84
2023/04/22 04:55:58;;;;;;;;;;;;;;;5.67;72.15;98308.69;104040;1322;124481;-85
2023/04/22 05:28:09;;;;;;;;;;;;;;;6.18;72.89;98318.34;103640;1327;22640;-86
2023/04/22 05:39:05;;;;;;;;;;;;;;;6.45;71.18;98318.48;105585;1306;25265;-85
2023/04/22 05:45:57;;;;;;;;;;;;;;;6.59;70.86;98320.35;103798;1309;22556;-84
2023/04/22 05:48:59;;;;;;;;;;;;;;;6.70;71.23;98318.55;99671;1322;5450483;-87
2023/04/22 05:52:28;;;;;;;;;;;;;;;6.79;71.43;98318.48;102515;1336;22549;-84
2023/04/22 05:57:19;;;;;;;;;;;;;;;6.96;71.41;98318.69;104288;1302;560748;-85
2023/04/22 06:00:46;;;;;;;;;;;;;;;7.09;71.43;98319.02;105887;1297;123743;-86
2023/04/22 06:07:27;;;;;;;;;;;;;;;;;;;;;
2023/04/22 06:11:09;;;;;;;;;;;;;;;7.48;71.87;98317.65;101432;1305;5438572;-84
2023/04/22 06:14:36;;;;;;;;;;;;;;;7.63;71.96;98312.25;104742;1308;125750;-84
2023/04/22 06:18:03;;;;;;;;;;;;;;;7.78;71.60;98314.95;104488;1299;22559;-85
2023/04/22 06:29:07;;;;;;;;;;;;;;;8.28;69.35;98318.23;104266;1299;557159;-85
2023/04/22 07:51:29;;;;;;;;;;;;;;;12.26;57.28;98307.58;107524;1273;25275;-89
2023/04/22 07:58:26;;;;;;;;;;;;;;;12.72;57.88;98313.02;105428;1299;23770;-86
2023/04/22 08:01:53;;;;;;;;;;;;;;;12.94;57.15;98311.19;104635;1311;124361;-88
2023/04/22 08:05:20;;;;;;;;;;;;;;;13.18;56.18;98308.86;104188;1302;23018;-88
2023/04/22 08:08:20;;;;;;;;;;;;;;;;;;;;;
2023/04/22 08:11:57;;;;;;;;;;;;;;;;;;;;;
2023/04/22 08:23:00;;;;;;;;;;;;;;;14.32;52.59;98303.14;104172;1305;544853;-87
2023/04/22 08:26:15;;;;;;;;;;;;;;;;;;;;;
2023/04/22 08:29:31;;;;;;;;;;;;;;;;;;;;;
2023/04/22 08:32:51;;;;;;;;;;;;;;;;;;;;;
2023/04/22 08:36:44;;;;;;;;;;;;;;;15.16;49.38;98299.98;101575;1303;5447898;-86
2023/04/22 08:43:24;;;;;;;;;;;;;;;;;;;;;
2023/04/22 08:50:11;;;;;;;;;;;;;;;;;;;;;
2023/04/22 09:04:39;;;;;;;;;;;;;;;16.72;42.56;98290.87;104490;1314;24379;-88
2023/04/22 09:08:06;;;;;;;;;;;;;;;16.89;41.80;98288.87;104324;1298;122935;-89
2023/04/22 09:14:59;;;;;;;;;;;;;;;17.25;39.83;98288.09;105464;1324;123303;-87
2023/04/22 09:29:18;;;;;;;;;;;;;;;;;;;;;
2023/04/22 09:32:57;;;;;;;;;;;;;;;18.10;37.53;98278.80;104852;1308;122868;-87
2023/04/22 09:36:23;;;;;;;;;;;;;;;18.24;38.00;98273.06;104307;1317;22552;-88
2023/04/22 09:39:27;;;;;;;;;;;;;;;;;;;;;
2023/04/22 09:42:48;;;;;;;;;;;;;;;;;;;;;
2023/04/22 09:46:19;;;;;;;;;;;;;;;;;;;;;
2023/04/22 09:50:01;;;;;;;;;;;;;;;18.77;36.16;98251.54;104372;1315;123503;-89
2023/04/22 09:53:29;;;;;;;;;;;;;;;18.89;35.92;98250.84;104071;1320;23381;-89
2023/04/22 09:56:48;;;;;;;;;;;;;;;18.97;35.64;98249.09;103862;1304;123107;-88
2023/04/22 09:59:35;;;;;;;;;;;;;;;;;;;;;
2023/04/22 10:03:26;;;;;;;;;;;;;;;19.21;36.15;98245.44;103875;1314;124164;-88
2023/04/22 10:06:38;;;;;;;;;;;;;;;19.31;35.05;98244.33;104772;1313;25396;-87
2023/04/22 10:13:21;;;;;;;;;;;;;;;19.48;33.51;98240.21;104902;1310;22768;-88
2023/04/22 10:20:08;;;;;;;;;;;;;;;;;;;;;
2023/04/22 10:23:48;;;;;;;;;;;;;;;19.69;34.47;98238.11;103755;1326;22566;-89
2023/04/22 10:27:00;;;;;;;;;;;;;;;;;;;;;
2023/04/22 10:30:20;;;;;;;;;;;;;;;;;;;;;
2023/04/22 10:33:33;;;;;;;;;;;;;;;;;;;;;
2023/04/22 10:37:24;;;;;;;;;;;;;;;20.07;34.36;98216.77;103752;1304;25450;-88
2023/04/22 10:40:43;;;;;;;;;;;;;;;;;;;;;
2023/04/22 10:43:50;;;;;;;;;;;;;;;;;;;;;
2023/04/22 10:47:30;;;;;;;;;;;;;;;;;;;;;
2023/04/22 10:51:13;;;;;;;;;;;;;;;20.51;32.61;98223.52;103563;1320;123963;-89
2023/04/22 10:54:01;;;;;;;;;;;;;;;;;;;;;
2023/04/22 10:57:47;;;;;;;;;;;;;;;20.63;31.42;98219.96;104132;1304;123248;-88
2023/04/22 11:01:01;;;;;;;;;;;;;;;;;;;;;
2023/04/22 11:03:51;;;;;;;;;;;;;;;20.82;31.44;98212.16;104466;1313;25430;-89
2023/04/22 11:07:26;;;;;;;;;;;;;;;;;;;;;
2023/04/22 11:11:04;;;;;;;;;;;;;;;21.06;31.56;98214.48;104076;1317;23061;-89
2023/04/22 11:14:31;;;;;;;;;;;;;;;21.16;31.22;98205.73;103717;1316;123574;-87
2023/04/22 11:17:57;;;;;;;;;;;;;;;21.21;31.01;98206.14;103798;1300;22559;-86
2023/04/22 11:20:49;;;;;;;;;;;;;;;;;;;;;
2023/04/22 11:24:27;;;;;;;;;;;;;;;;;;;;;
2023/04/22 11:27:42;;;;;;;;;;;;;;;;;;;;;
2023/04/22 11:31:00;;;;;;;;;;;;;;;;;;;;;
2023/04/22 11:34:37;;;;;;;;;;;;;;;21.53;31.88;98193.78;103683;1325;22727;-87
2023/04/22 11:38:03;;;;;;;;;;;;;;;21.62;29.88;98190.55;103771;1301;124965;-90
2023/04/22 11:41:14;;;;;;;;;;;;;;;21.74;30.28;98186.17;103933;1320;22591;-87
2023/04/22 11:44:26;;;;;;;;;;;;;;;;;;;;;
2023/04/22 11:48:03;;;;;;;;;;;;;;;21.81;29.60;98179.64;104122;1300;22815;-87
2023/04/22 11:50:56;;;;;;;;;;;;;;;;;;;;;
2023/04/22 11:54:01;;;;;;;;;;;;;;;;;;;;;
2023/04/22 11:57:33;;;;;;;;;;;;;;;;;;;;;
2023/04/22 12:00:45;;;;;;;;;;;;;;;;;;;;;
2023/04/22 12:04:22;;;;;;;;;;;;;;;22.12;30.81;98162.56;105767;1296;23288;-88
2023/04/22 12:07:51;;;;;;;;;;;;;;;;;;;;;
2023/04/22 12:11:02;;;;;;;;;;;;;;;;;;;;;
2023/04/22 12:14:06;;;;;;;;;;;;;;;;;;;;;
2023/04/22 12:17:20;;;;;;;;;;;;;;;;;;;;;
2023/04/22 12:20:52;;;;;;;;;;;;;;;;;;;;;
2023/04/22 12:23:56;;;;;;;;;;;;;;;;;;;;;
2023/04/22 12:27:10;;;;;;;;;;;;;;;22.57;30.62;98152.98;104956;1297;123674;-87
2023/04/22 12:30:22;;;;;;;;;;;;;;;;;;;;;
2023/04/22 12:33:53;;;;;;;;;;;;;;;;;;;;;
2023/04/22 12:37:36;;;;;;;;;;;;;;;22.71;29.58;98148.55;104933;1310;22750;-87
2023/04/22 12:40:30;;;;;;;;;;;;;;;;;;;;;
2023/04/22 12:47:04;;;;;;;;;;;;;;;;;;;;;
2023/04/22 12:50:57;;;;;;;;;;;;;;;22.92;30.29;98142.02;105126;1286;123779;-90
2023/04/22 12:54:02;;;;;;;;;;;;;;;;;;;;;
2023/04/22 12:57:04;;;;;;;;;;;;;;;;;;;;;
2023/04/22 13:00:15;;;;;;;;;;;;;;;;;;;;;
2023/04/22 13:03:51;;;;;;;;;;;;;;;23.21;29.32;98127.41;106048;1289;124111;-87
2023/04/22 13:06:57;;;;;;;;;;;;;;;;;;;;;
2023/04/22 13:10:16;;;;;;;;;;;;;;;;;;;;;
2023/04/22 13:14:09;;;;;;;;;;;;;;;23.43;29.13;98117.71;106635;1295;22644;-89
2023/04/22 13:17:36;;;;;;;;;;;;;;;23.47;29.32;98116.11;106638;1295;22540;-89
2023/04/22 13:20:19;;;;;;;;;;;;;;;;;;;;;
2023/04/22 13:23:53;;;;;;;;;;;;;;;;;;;;;
2023/04/22 13:31:10;;;;;;;;;;;;;;;23.53;28.51;98107.92;105308;1286;25275;-86
2023/04/22 13:34:28;;;;;;;;;;;;;;;23.52;27.94;98105.50;104897;1304;123455;-86
2023/04/22 13:37:20;;;;;;;;;;;;;;;;;;;;;
2023/04/22 13:40:20;;;;;;;;;;;;;;;23.53;28.19;98104.81;105688;1297;22530;-88
2023/04/22 13:43:34;;;;;;;;;;;;;;;;;;;;;
2023/04/22 13:47:12;;;;;;;;;;;;;;;23.60;29.17;98099.43;106032;1303;22550;-88
2023/04/22 13:50:00;;;;;;;;;;;;;;;;;;;;;
2023/04/22 13:53:08;;;;;;;;;;;;;;;;;;;;;
2023/04/22 13:56:28;;;;;;;;;;;;;;;;;;;;;
2023/04/22 14:00:22;;;;;;;;;;;;;;;23.78;27.33;98095.58;105513;1297;22587;-88
2023/04/22 14:03:24;;;;;;;;;;;;;;;;;;;;;
2023/04/22 14:07:16;;;;;;;;;;;;;;;23.65;27.30;98092.42;106104;1297;22642;-88
2023/04/22 14:10:20;;;;;;;;;;;;;;;;;;;;;
2023/04/22 14:14:03;;;;;;;;;;;;;;;23.71;28.31;98092.14;106766;1272;22586;-88
2023/04/22 14:16:36;;;;;;;;;;;;;;;;;;;;;
2023/04/22 14:19:57;;;;;;;;;;;;;;;;;;;;;
2023/04/22 14:23:42;;;;;;;;;;;;;;;23.60;26.85;98081.58;106050;1282;23874;-88
2023/04/22 14:26:31;;;;;;;;;;;;;;;;;;;;;
2023/04/22 14:29:57;;;;;;;;;;;;;;;;;;;;;
2023/04/22 14:33:05;;;;;;;;;;;;;;;;;;;;;
2023/04/22 14:36:51;;;;;;;;;;;;;;;;;;;;;
2023/04/22 14:39:59;;;;;;;;;;;;;;;;;;;;;
2023/04/22 14:43:37;;;;;;;;;;;;;;;;;;;;;
2023/04/22 14:46:47;;;;;;;;;;;;;;;;;;;;;
2023/04/22 14:50:34;;;;;;;;;;;;;;;23.02;27.38;98069.95;105216;1304;24612;-87
2023/04/22 14:53:36;;;;;;;;;;;;;;;22.99;27.28;98067.79;105359;1286;24288;-87
2023/04/22 14:57:31;;;;;;;;;;;;;;;22.98;27.86;98063.05;105092;1305;124332;-88
2023/04/22 15:00:37;;;;;;;;;;;;;;;;;;;;;
2023/04/22 15:04:14;;;;;;;;;;;;;;;;;;;;;
2023/04/22 15:07:56;;;;;;;;;;;;;;;23.12;27.13;98062.38;104519;1313;24426;-89
2023/04/22 15:14:34;;;;;;;;;;;;;;;;;;;;;
2023/04/22 15:17:35;;;;;;;;;;;;;;;;;;;;;
2023/04/22 15:21:09;;;;;;;;;;;;;;;;;;;;;
2023/04/22 15:25:18;;;;;;;;;;;;;;;23.37;26.72;98051.97;104122;1314;546921;-87
2023/04/22 15:28:38;;;;;;;;;;;;;;;23.32;26.96;98051.70;105850;1300;123068;-86
2023/04/22 15:32:06;;;;;;;;;;;;;;;23.26;26.88;98055.75;106186;1302;22621;-89
2023/04/22 15:35:20;;;;;;;;;;;;;;;;;;;;;
2023/04/22 15:38:54;;;;;;;;;;;;;;;23.19;26.53;98055.36;100906;1309;5460659;-86
2023/04/22 15:49:17;;;;;;;;;;;;;;;22.75;29.00;98053.92;104231;1320;25380;-86
2023/04/22 15:52:43;;;;;;;;;;;;;;;22.64;27.56;98048.34;104166;1324;124542;-86
2023/04/22 15:55:56;;;;;;;;;;;;;;;;;;;;;
2023/04/22 15:59:35;;;;;;;;;;;;;;;22.62;29.31;98047.27;103896;1324;23037;-87
2023/04/22 16:02:24;;;;;;;;;;;;;;;;;;;;;
2023/04/22 16:06:09;;;;;;;;;;;;;;;22.56;28.50;98050.16;104111;1320;24291;-86
2023/04/22 16:09:35;;;;;;;;;;;;;;;22.53;29.08;98046.33;104689;1312;124470;-88
2023/04/22 16:12:29;;;;;;;;;;;;;;;;;;;;;
2023/04/22 16:16:03;;;;;;;;;;;;;;;22.34;28.44;98043.02;104104;1298;123630;-86
2023/04/22 16:19:46;;;;;;;;;;;;;;;22.31;28.24;98040.48;104384;1318;23402;-85
2023/04/22 16:22:58;;;;;;;;;;;;;;;;;;;;;
2023/04/22 16:26:05;;;;;;;;;;;;;;;;;;;;;
2023/04/22 16:29:57;;;;;;;;;;;;;;;22.14;28.62;98039.93;104066;1320;22595;-91
2023/04/22 16:33:16;;;;;;;;;;;;;;;22.14;29.80;98040.55;103878;1326;25339;-85
2023/04/22 16:36:08;;;;;;;;;;;;;;;;;;;;;
2023/04/22 16:43:14;;;;;;;;;;;;;;;;;;;;;
2023/04/22 16:46:52;;;;;;;;;;;;;;;22.62;28.72;98032.96;103460;1310;123429;-88
2023/04/22 16:57:30;;;;;;;;;;;;;;;;;;;;;
2023/04/22 17:01:12;;;;;;;;;;;;;;;21.97;30.24;98034.38;106319;1291;24215;-88
2023/04/22 17:04:12;;;;;;;;;;;;;;;;;;;;;
2023/04/22 17:11:36;;;;;;;;;;;;;;;;;;;;;
2023/04/22 17:14:38;;;;;;;;;;;;;;;;;;;;;
2023/04/22 17:18:09;;;;;;;;;;;;;;;;;;;;;
2023/04/22 17:21:52;;;;;;;;;;;;;;;20.49;32.56;98037.40;105888;1285;123142;-87
2023/04/22 17:24:29;;;;;;;;;;;;;;;20.22;33.75;98041.80;101893;1300;5443974;-90
2023/04/22 17:27:40;;;;;;;;;;;;;;;;;;;;;
2023/04/22 17:31:26;;;;;;;;;;;;;;;19.52;35.02;98038.85;106273;1280;22528;-89
2023/04/22 17:34:39;;;;;;;;;;;;;;;;;;;;;
2023/04/22 17:37:56;;;;;;;;;;;;;;;;;;;;;
2023/04/22 17:41:17;;;;;;;;;;;;;;;;;;;;;
2023/04/22 17:45:10;;;;;;;;;;;;;;;17.95;38.56;98047.19;105362;1312;22710;-92
2023/04/22 17:48:36;;;;;;;;;;;;;;;17.59;39.58;98054.52;104434;1312;22672;-88
2023/04/22 17:51:53;;;;;;;;;;;;;;;17.23;38.87;98057.79;103807;1318;123618;-88
2023/04/22 17:55:20;;;;;;;;;;;;;;;16.92;40.65;98063.08;103833;1318;22555;-90
2023/04/22 17:58:37;;;;;;;;;;;;;;;16.63;41.27;98066.08;103988;1314;123628;-91
2023/04/22 18:01:58;;;;;;;;;;;;;;;16.36;41.23;98068.54;104439;1309;22647;-88
2023/04/22 18:04:45;;;;;;;;;;;;;;;;;;;;;
2023/04/22 18:08:09;;;;;;;;;;;;;;;;;;;;;
2023/04/22 18:11:53;;;;;;;;;;;;;;;15.65;44.46;98075.91;104142;1298;123189;-90
2023/04/22 18:15:22;;;;;;;;;;;;;;;15.43;43.85;98079.27;104044;1311;22556;-91
2023/04/22 18:18:46;;;;;;;;;;;;;;;15.22;43.84;98082.88;104284;1309;22572;-87
2023/04/22 18:25:05;;;;;;;;;;;;;;;;;;;;;
2023/04/22 18:28:57;;;;;;;;;;;;;;;14.68;46.04;98084.50;104542;1309;123824;-87
2023/04/22 18:35:48;;;;;;;;;;;;;;;14.33;46.19;98086.83;103628;1326;125031;-86
2023/04/22 18:38:49;;;;;;;;;;;;;;;14.18;46.44;98090.94;103623;1324;22615;-86
2023/04/22 18:45:56;;;;;;;;;;;;;;;13.94;46.95;98086.70;104350;1301;547322;-85
2023/04/22 18:49:47;;;;;;;;;;;;;;;13.78;47.54;98092.14;106756;1293;23023;-89
2023/04/22 18:52:44;;;;;;;;;;;;;;;;;;;;;
2023/04/22 18:55:53;;;;;;;;;;;;;;;;;;;;;
2023/04/22 18:59:47;;;;;;;;;;;;;;;13.47;47.32;98090.73;101385;1306;5526159;-87
2023/04/22 19:03:12;;;;;;;;;;;;;;;13.37;47.87;98085.59;105299;1309;22537;-86
2023/04/22 19:06:32;;;;;;;;;;;;;;;13.26;48.25;98088.54;104858;1291;22557;-89
2023/04/22 19:09:58;;;;;;;;;;;;;;;13.16;48.54;98091.10;105536;1305;123788;-85
2023/04/22 19:12:58;;;;;;;;;;;;;;;;;;;;;
2023/04/22 19:16:29;;;;;;;;;;;;;;;;;;;;;
2023/04/22 19:23:18;;;;;;;;;;;;;;;;;;;;;
2023/04/22 19:26:25;;;;;;;;;;;;;;;;;;;;;
2023/04/22 19:30:08;;;;;;;;;;;;;;;12.67;49.39;98085.73;102997;1325;22646;-86
2023/04/22 19:33:35;;;;;;;;;;;;;;;12.59;49.31;98086.84;103077;1329;23221;-91
2023/04/22 19:36:29;;;;;;;;;;;;;;;;;;;;;
2023/04/22 19:40:21;;;;;;;;;;;;;;;12.46;49.88;98089.18;103188;1322;123647;-85
2023/04/22 19:43:18;;;;;;;;;;;;;;;12.39;50.38;98084.58;103770;1321;22642;-87
2023/04/22 19:54:39;;;;;;;;;;;;;;;12.20;50.62;98085.84;104225;1303;545419;-88
2023/04/22 19:58:05;;;;;;;;;;;;;;;12.10;50.35;98082.89;105914;1296;123716;-86
2023/04/22 20:05:04;;;;;;;;;;;;;;;11.99;50.13;98083.31;105382;1306;122876;-87
2023/04/22 20:11:28;;;;;;;;;;;;;;;;;;;;;
2023/04/22 20:15:19;;;;;;;;;;;;;;;11.79;50.51;98079.89;104315;1301;22640;-86
2023/04/22 20:18:38;;;;;;;;;;;;;;;11.73;50.70;98080.66;103871;1317;22564;-85
2023/04/22 20:25:34;;;;;;;;;;;;;;;;;;;;;
2023/04/22 20:29:29;;;;;;;;;;;;;;;11.57;49.15;98086.65;105929;1295;123916;-85
2023/04/22 20:32:46;;;;;;;;;;;;;;;11.52;49.44;98083.66;105244;1303;25252;-86
2023/04/22 20:36:14;;;;;;;;;;;;;;;11.47;50.05;98082.85;105599;1293;122907;-85
2023/04/22 20:39:07;;;;;;;;;;;;;;;;;;;;;
2023/04/22 20:42:59;;;;;;;;;;;;;;;11.34;50.24;98082.48;103942;1323;22557;-88
2023/04/22 20:46:27;;;;;;;;;;;;;;;11.28;50.42;98077.29;103825;1305;123313;-91
2023/04/22 20:49:20;;;;;;;;;;;;;;;;;;;;;
2023/04/22 20:52:39;;;;;;;;;;;;;;;;;;;;;
2023/04/22 20:56:13;;;;;;;;;;;;;;;11.12;51.75;98074.70;102974;1318;23381;-88
2023/04/22 21:07:20;;;;;;;;;;;;;;;10.92;52.82;98070.96;106799;1293;22546;-88
2023/04/22 21:10:47;;;;;;;;;;;;;;;10.87;52.62;98069.33;105988;1299;123543;-85
2023/04/22 21:14:15;;;;;;;;;;;;;;;10.81;51.97;98067.24;105122;1292;22537;-87
2023/04/22 21:17:31;;;;;;;;;;;;;;;;;;;;;
2023/04/22 21:24:39;;;;;;;;;;;;;;;10.69;52.49;98059.00;104164;1301;123499;-86
2023/04/22 21:42:30;;;;;;;;;;;;;;;10.46;53.38;98063.09;105189;1307;123157;-90
2023/04/22 21:45:57;;;;;;;;;;;;;;;10.42;53.94;98060.98;104774;1309;22542;-85
2023/04/22 21:52:52;;;;;;;;;;;;;;;10.35;53.75;98059.65;99950;1321;5466183;-87
2023/04/22 21:56:19;;;;;;;;;;;;;;;10.32;53.64;98057.16;104439;1318;22554;-90
2023/04/22 22:03:45;;;;;;;;;;;;;;;10.31;54.05;98060.33;104061;1299;545826;-83
2023/04/22 22:10:43;;;;;;;;;;;;;;;10.24;54.15;98061.01;106508;1291;123180;-86
2023/04/22 22:13:47;;;;;;;;;;;;;;;10.21;54.51;98062.60;105435;1289;22653;-87
2023/04/22 22:17:38;;;;;;;;;;;;;;;10.18;54.34;98062.55;100672;1315;5426830;-87
2023/04/22 22:21:07;;;;;;;;;;;;;;;10.15;55.22;98065.19;104336;1317;22567;-86
2023/04/22 22:32:05;;;;;;;;;;;;;;;9.98;56.06;98069.20;105676;1298;24152;-86
2023/04/22 22:42:29;;;;;;;;;;;;;;;9.85;56.56;98069.56;100593;1315;5487668;-84
2023/04/22 22:45:57;;;;;;;;;;;;;;;9.82;57.06;98070.27;104747;1309;22673;-87
2023/04/22 22:52:34;;;;;;;;;;;;;;;9.76;56.80;98070.99;103844;1321;22742;-85
2023/04/22 23:06:58;;;;;;;;;;;;;;;9.64;58.02;98063.16;105990;1296;123025;-85
2023/04/22 23:13:53;;;;;;;;;;;;;;;9.54;58.57;98066.31;105477;1286;24640;-86
2023/04/22 23:17:22;;;;;;;;;;;;;;;9.47;59.22;98068.48;100566;1312;5522930;-85
2023/04/22 23:27:42;;;;;;;;;;;;;;;9.25;59.58;98065.30;104171;1319;26528;-86
2023/04/22 23:38:37;;;;;;;;;;;;;;;9.12;59.75;98060.38;103901;1321;548121;-85
2023/04/22 23:45:33;;;;;;;;;;;;;;;9.00;60.87;98055.11;105266;1308;22544;-84
2023/04/22 23:49:02;;;;;;;;;;;;;;;8.96;60.87;98052.96;105309;1290;122929;-87
2023/04/22 23:56:02;;;;;;;;;;;;;;;8.87;61.63;98052.81;104381;1317;22603;-88
